Airfield :
LOGIN :

Register | Disclaimer

   EN    FR    IT 

 










Legend :    VFR   Marginal VFR   IFR   Intensive IFR   Very Intensive IFR
Visi :
Ceiling :
>= 8 km
>= 3000ft
5 to 8 km
1000 to 3000 ft
1500m to 5 km
500 to 1000 ft
800 to 1500m
200 to 500 ft
< 800m
< 200 ft
Symbols :   Thunderstorms  Fog  Heavy snow  Heavy precipitations  Wind > 20 kt
SIGMETs :     Misc.  Thunderstorms  Icing  Turbulence  Mountain Waves  Volcanic Ashes






- Airport Elevation : 157 ft
- IATA code : LIL


LFQQ - Lille Lesquin

CURRENT METAR :
  • 141730Z AUTO 14010KT CAVOK 20/15 Q1004 TEMPO VRB25G45KT 0800 TSGR BKN008 BKN030CB

EXPIRED METARs :
  • 141700Z AUTO 13008KT CAVOK 19/15 Q1004 NOSIG
  • 141630Z AUTO 14009KT CAVOK 20/15 Q1004 NOSIG
  • 141600Z AUTO 13009KT 9999 ///TCU 21/15 Q1004 BECMG SCT040
  • 141530Z AUTO 13010KT 9999 FEW042 BKN110 21/15 Q1004 NOSIG
  • 141500Z AUTO 13010KT CAVOK 21/15 Q1004 NOSIG

TAF TAF LFQQ
Valid from the 14 at 18:00 until the 16 at 00:00 UTC


141700Z 1418/1524 16012KT 9999 SCT040
TEMPO 1419/1421 VRB20G35KT 2000 TSRA BKN008 BKN030CB
PROB40 1419/1421 VRB25G45KT 0800 TSGR
BECMG 1500/1503 22012KT
PROB40
TEMPO 1500/1509 4000 RA BKN008
TEMPO 1509/1512 BKN013 BKN020
PROB30
TEMPO 1518/1523 4000 SHRA BKN020TCU
ATIS : +33 3 20 16 19 54



MET'MAP, your aeronautical weather chart ! - Copyright ORBIFLY December 2007 - Disclaimer

ORBIFLY MET'MAP TEAM :

Programming & Development : Alexandra Zaïnal
Concept & Development : Baudouin d'Aumeries
Co-Development & Prog : Marc-Olivier Méhu
Technical & hardware support : Manuel Goepfert

Contact : metmap@orbifly.com




SOURCES & CREDITS :

   NOAA